Semmes, AL (36575)

12:23 AM CST on February 07, 2016 (GMT -0600)
Fairview | | Change Station
CLOSE
Current Station
Personal Weather Station
Location: Semmes, AL
Elevation: 245 ft
Nearby Weather Stations

Elev 245 ft 30.78 °N, 88.29 °W | Updated 3 seconds ago

Clear
Clear
33.1 °F
Feels Like 33 °F
N
0.0
Wind Variable Wind from NW
Gusts 0.7 mph

Today
High -- | Low -- °F
--% Chance of Precip.
Yesterday
High -- | Low -- °F
Precip. -- in
Pressure 30.26 in
Visibility 10.0 miles
Clouds Clear
Windchill 33 °F
Dew Point 25 °F
Humidity 73%
Rainfall 0.00 in
Snow Depth Not available.
6:40 AM 5:33 PM
Waning Crescent, 2% visible
METAR KMOB 070556Z AUTO 33005KT 10SM CLR 04/M04 A3026 RMK AO2 SLP247 T00391039 10094 20033 401391017 55004
Pressure 30.26 in
Visibility 10.0 miles
Clouds Clear
Windchill 33 °F
Dew Point 25 °F
Humidity 73%
Rainfall 0.00 in
Snow Depth Not available.
6:40 AM 5:33 PM
Waning Crescent, 2% visible
METAR KMOB 070556Z AUTO 33005KT 10SM CLR 04/M04 A3026 RMK AO2 SLP247 T00391039 10094 20033 401391017 55004

10-Day Weather Forecast

Almanac

Astronomy

Feb. 07, 2016 Rise Set
Actual Time
Civil Twilight
Nautical Twilight
Astronomical Twilight
Moon
Length of Visible Light
Length of Day
Tomorrow will be .
, % of the Moon is Illuminated

Today's Extremes

State Highs State Lows

Community

WunderPhotos

Upload Photos

1,891,175 photos uploaded!

WunderBlog® & News

Nearby

Air Quality

  Air Quality AQ Index Pollutant
Not available.

Snow Depth

Station Depth Elevation

Earthquake Activity

City Distance Mag. Time & Date
Minimum magnitude displayed is 2.5.

Coastal Water Temperatures

Place Temperature

Stations

Nearby Weather Stations

Station Location Temp. Windchill Dew Point Humidity Wind Precip. Elev Updated Type
                   

Watches & Warnings

There are currently no watches in effect.